createdAt,value
2023-04-09T00:01:23.837Z,86.41
2023-04-09T00:03:53.184Z,85.42
2023-04-09T00:06:22.291Z,86.62
2023-04-09T00:08:51.002Z,87.66
2023-04-09T00:13:53.948Z,85.59
2023-04-09T00:16:22.348Z,83.77
2023-04-09T00:18:51.016Z,82.56
2023-04-09T00:21:20.822Z,82.92
2023-04-09T00:23:49.061Z,83.52
2023-04-09T00:26:17.476Z,84.47
2023-04-09T00:28:46.219Z,84.90
2023-04-09T00:31:15.886Z,86.06
2023-04-09T00:33:44.823Z,84.85
2023-04-09T00:36:14.246Z,83.69
2023-04-09T00:38:42.846Z,82.69
2023-04-09T00:41:13.542Z,82.29
2023-04-09T00:43:41.816Z,82.46
2023-04-09T00:46:10.102Z,82.85
2023-04-09T00:48:39.607Z,83.07
2023-04-09T00:51:09.167Z,84.69
2023-04-09T00:53:37.630Z,83.24
2023-04-09T00:56:07.058Z,82.04
2023-04-09T00:58:41.802Z,80.81
2023-04-09T01:01:10.105Z,80.27
2023-04-09T01:03:40.050Z,80.12
2023-04-09T01:06:23.071Z,79.95
2023-04-09T01:09:12.155Z,80.12
2023-04-09T01:12:07.122Z,82.72
2023-04-09T01:14:41.365Z,82.24
2023-04-09T01:17:58.985Z,80.67
2023-04-09T01:20:36.125Z,80.45
2023-04-09T01:23:17.030Z,80.39
2023-04-09T01:26:00.515Z,80.23
2023-04-09T01:28:42.379Z,80.13
2023-04-09T01:31:25.414Z,80.10
2023-04-09T01:33:54.130Z,83.06
2023-04-09T01:36:24.388Z,82.95
2023-04-09T01:38:56.155Z,82.21
2023-04-09T01:41:27.331Z,81.80
2023-04-09T01:43:56.013Z,81.70
2023-04-09T01:46:25.235Z,82.03
2023-04-09T01:48:55.026Z,82.87
2023-04-09T01:51:23.782Z,83.97
2023-04-09T01:53:52.109Z,85.67
2023-04-09T01:56:23.590Z,85.90
2023-04-09T01:58:57.311Z,84.95
2023-04-09T02:01:48.312Z,83.97
2023-04-09T02:04:40.789Z,83.68
2023-04-09T02:07:40.310Z,83.94
2023-04-09T02:10:10.419Z,83.01
2023-04-09T02:12:41.884Z,83.83
2023-04-09T02:15:12.596Z,88.33
2023-04-09T02:17:41.495Z,88.62
2023-04-09T02:20:10.448Z,87.55
2023-04-09T02:22:39.291Z,86.84
2023-04-09T02:25:07.918Z,86.70
2023-04-09T02:27:36.358Z,87.60
2023-04-09T02:30:08.533Z,87.37
2023-04-09T02:32:37.114Z,88.34
2023-04-09T02:35:08.105Z,90.62
2023-04-09T02:37:37.886Z,90.64
2023-04-09T02:40:06.543Z,89.81
2023-04-09T02:42:35.036Z,88.89
2023-04-09T02:45:03.506Z,87.23
2023-04-09T02:47:38.834Z,86.44
2023-04-09T02:50:08.338Z,86.21
2023-04-09T02:52:37.837Z,86.98
2023-04-09T02:55:08.555Z,87.13
2023-04-09T02:57:37.557Z,86.05
2023-04-09T03:00:09.375Z,85.23
2023-04-09T03:02:39.783Z,86.22
2023-04-09T03:05:08.292Z,86.64
2023-04-09T03:07:36.770Z,88.27
2023-04-09T03:10:07.335Z,88.15
2023-04-09T03:12:36.175Z,89.44
2023-04-09T03:15:04.957Z,88.82
2023-04-09T03:17:33.427Z,87.09
2023-04-09T03:20:02.242Z,86.20
2023-04-09T03:22:37.894Z,85.29
2023-04-09T03:25:09.460Z,84.31
2023-04-09T03:27:38.103Z,84.54
2023-04-09T03:30:08.404Z,84.74
2023-04-09T03:32:41.526Z,87.11
2023-04-09T03:35:10.770Z,87.08
2023-04-09T03:37:41.239Z,85.19
2023-04-09T03:40:14.845Z,83.92
2023-04-09T03:42:44.251Z,83.11
2023-04-09T03:45:13.559Z,82.68
2023-04-09T03:47:46.091Z,82.11
2023-04-09T03:50:14.702Z,82.37
2023-04-09T03:52:48.786Z,84.44
2023-04-09T03:55:17.146Z,83.42
2023-04-09T03:57:45.692Z,81.76
2023-04-09T04:00:18.503Z,80.77
2023-04-09T04:02:53.668Z,79.49
2023-04-09T04:05:38.049Z,78.00
2023-04-09T04:08:09.473Z,77.04
2023-04-09T04:10:37.961Z,76.39
2023-04-09T04:13:20.765Z,76.65
2023-04-09T04:15:54.854Z,76.70
2023-04-09T04:18:25.391Z,75.64
2023-04-09T04:20:57.355Z,75.16
2023-04-09T04:23:45.704Z,73.62
2023-04-09T04:26:25.396Z,72.31
2023-04-09T04:28:54.882Z,70.55
2023-04-09T04:31:41.901Z,69.70
2023-04-09T04:34:11.229Z,69.76
2023-04-09T04:36:40.706Z,70.09
2023-04-09T04:39:10.479Z,70.16
2023-04-09T04:41:49.949Z,69.95
2023-04-09T04:44:24.011Z,67.99
2023-04-09T04:46:58.112Z,67.41
2023-04-09T04:49:27.075Z,66.90
2023-04-09T04:51:57.791Z,68.27
2023-04-09T04:54:26.438Z,67.78
2023-04-09T04:56:57.660Z,68.13
2023-04-09T04:59:42.979Z,68.30
2023-04-09T05:02:13.218Z,68.35
2023-04-09T05:04:57.401Z,68.85
2023-04-09T05:07:33.959Z,68.69
2023-04-09T05:10:06.136Z,69.11
2023-04-09T05:12:38.520Z,68.23
2023-04-09T05:15:09.168Z,67.25
2023-04-09T05:17:43.196Z,65.22
2023-04-09T05:20:13.546Z,63.68
2023-04-09T05:22:50.630Z,62.95
2023-04-09T05:25:20.160Z,60.11
2023-04-09T05:27:49.326Z,59.34
2023-04-09T05:30:17.679Z,59.41
2023-04-09T05:32:50.124Z,57.81
2023-04-09T05:35:18.723Z,55.43
2023-04-09T05:37:47.104Z,54.55
2023-04-09T05:40:15.842Z,52.47
2023-04-09T05:42:46.053Z,51.37
2023-04-09T05:45:20.122Z,49.76
2023-04-09T05:47:52.146Z,48.93
2023-04-09T05:50:24.207Z,45.32
2023-04-09T05:53:00.905Z,44.13
2023-04-09T05:55:38.070Z,44.34
2023-04-09T05:58:07.803Z,42.44
2023-04-09T06:00:42.528Z,42.42
2023-04-09T06:03:11.067Z,41.49
2023-04-09T06:05:39.681Z,41.18
2023-04-09T06:08:10.651Z,40.37
2023-04-09T06:10:40.461Z,36.95
2023-04-09T06:13:10.506Z,34.58
2023-04-09T06:15:44.137Z,34.16
2023-04-09T06:18:13.721Z,37.41
2023-04-09T06:20:42.013Z,38.67
2023-04-09T06:23:15.471Z,38.58
2023-04-09T06:25:45.058Z,39.36
2023-04-09T06:28:13.377Z,42.29
2023-04-09T06:30:47.663Z,42.05
2023-04-09T06:33:16.806Z,43.87
2023-04-09T06:35:45.058Z,44.30
2023-04-09T06:38:13.602Z,45.38
2023-04-09T06:40:42.678Z,46.00
2023-04-09T06:43:12.438Z,47.15
2023-04-09T06:45:51.725Z,48.11
2023-04-09T06:48:20.211Z,49.53
2023-04-09T06:50:48.701Z,50.48
2023-04-09T06:53:17.811Z,52.01
2023-04-09T06:55:46.469Z,52.85
2023-04-09T06:58:16.675Z,53.20
2023-04-09T07:00:44.962Z,54.68
2023-04-09T07:03:16.045Z,54.82
2023-04-09T07:05:45.194Z,55.13
2023-04-09T07:08:13.497Z,56.29
2023-04-09T07:10:42.464Z,57.45
2023-04-09T07:13:13.441Z,58.13
2023-04-09T07:15:42.678Z,59.21
2023-04-09T07:18:11.962Z,59.13
2023-04-09T07:20:43.132Z,60.19
2023-04-09T07:23:12.148Z,60.16
2023-04-09T07:25:42.495Z,60.14
2023-04-09T07:28:11.781Z,60.58
2023-04-09T07:30:40.558Z,60.97
2023-04-09T07:33:09.025Z,61.27
2023-04-09T07:35:38.781Z,61.35
2023-04-09T07:38:07.430Z,62.07
2023-04-09T07:40:41.675Z,61.76
2023-04-09T07:43:10.693Z,61.20
2023-04-09T07:45:39.172Z,60.77
2023-04-09T07:48:09.449Z,60.87
2023-04-09T07:50:38.984Z,61.20
2023-04-09T07:53:07.151Z,60.68
2023-04-09T07:55:35.382Z,60.29
2023-04-09T07:58:07.489Z,59.90
2023-04-09T08:00:41.028Z,59.63
2023-04-09T08:03:10.346Z,59.96
2023-04-09T08:05:40.067Z,59.56
2023-04-09T08:11:41.029Z,58.91
2023-04-09T08:14:13.019Z,58.90
2023-04-09T08:16:43.402Z,58.93
2023-04-09T08:19:12.483Z,59.35
2023-04-09T08:21:44.671Z,59.96
2023-04-09T08:24:12.938Z,59.84
2023-04-09T08:26:42.808Z,59.44
2023-04-09T08:29:13.072Z,59.34
2023-04-09T08:31:41.497Z,58.15
2023-04-09T08:34:10.020Z,58.39
2023-04-09T08:36:38.527Z,59.22
2023-04-09T08:39:07.225Z,58.88
2023-04-09T08:41:40.620Z,58.21
2023-04-09T08:44:08.804Z,57.70
2023-04-09T08:46:37.412Z,57.76
2023-04-09T08:49:05.684Z,57.64
2023-04-09T08:51:34.217Z,57.40
2023-04-09T08:54:04.626Z,56.97
2023-04-09T08:56:33.761Z,57.29
